Terminal Aerodrome Forecast
Issued by NWS Jackson, MS

Home | Current Version | Previous Version | Text Only | Print | Product List | Glossary On
Versions: 1 2 3 4 5 6 7 8 9 10 11 12 13 14
000
FTUS44 KJAN 210528
TAFHBG
TAF
KHBG 210528Z 2106/2206 00000KT P6SM SCT200
     FM210900 00000KT 4SM BR FEW025 BKN100
     FM211200 00000KT 2SM BR OVC003
     FM211500 03003KT P6SM BKN035
     FM212000 05005KT P6SM VCTS SCT040CB BKN060
     FM220000 03003KT P6SM SCT030 BKN100=

USA.gov is the U.S. government's official web portal to all federal, state and local government web resources and services.